sensor_id;sensor_type;location;lat;lon;timestamp;temperature;humidity
59857;DHT22;45733;52.668;6.860;2024-02-28T00:01:48;5.70;99.90
59857;DHT22;45733;52.668;6.860;2024-02-28T00:04:14;5.20;99.90
59857;DHT22;45733;52.668;6.860;2024-02-28T00:06:40;5.20;99.90
59857;DHT22;45733;52.668;6.860;2024-02-28T00:09:05;5.00;99.90
59857;DHT22;45733;52.668;6.860;2024-02-28T00:11:31;4.80;99.90
59857;DHT22;45733;52.668;6.860;2024-02-28T00:13:58;5.60;99.90
59857;DHT22;45733;52.668;6.860;2024-02-28T00:16:25;5.30;99.90
59857;DHT22;45733;52.668;6.860;2024-02-28T00:18:51;5.50;99.90
59857;DHT22;45733;52.668;6.860;2024-02-28T00:21:17;5.60;99.90
59857;DHT22;45733;52.668;6.860;2024-02-28T00:23:42;4.70;99.90
59857;DHT22;45733;52.668;6.860;2024-02-28T00:26:08;4.80;99.90
59857;DHT22;45733;52.668;6.860;2024-02-28T00:28:34;4.60;99.90
59857;DHT22;45733;52.668;6.860;2024-02-28T00:30:59;4.80;99.90
59857;DHT22;45733;52.668;6.860;2024-02-28T00:33:25;5.60;99.90
59857;DHT22;45733;52.668;6.860;2024-02-28T00:35:51;5.00;99.90
59857;DHT22;45733;52.668;6.860;2024-02-28T00:38:19;5.00;99.90
59857;DHT22;45733;52.668;6.860;2024-02-28T00:40:44;5.10;99.90
59857;DHT22;45733;52.668;6.860;2024-02-28T00:43:10;4.70;99.90
59857;DHT22;45733;52.668;6.860;2024-02-28T00:45:36;5.10;99.90
59857;DHT22;45733;52.668;6.860;2024-02-28T00:48:02;5.70;99.90
59857;DHT22;45733;52.668;6.860;2024-02-28T00:50:27;4.90;99.90
59857;DHT22;45733;52.668;6.860;2024-02-28T00:52:53;4.70;99.90
59857;DHT22;45733;52.668;6.860;2024-02-28T00:55:19;4.60;99.90
59857;DHT22;45733;52.668;6.860;2024-02-28T00:57:44;4.60;99.90
59857;DHT22;45733;52.668;6.860;2024-02-28T01:00:10;5.70;99.90
59857;DHT22;45733;52.668;6.860;2024-02-28T01:02:36;4.70;99.90
59857;DHT22;45733;52.668;6.860;2024-02-28T01:05:02;5.00;99.90
59857;DHT22;45733;52.668;6.860;2024-02-28T01:07:28;5.30;99.90
59857;DHT22;45733;52.668;6.860;2024-02-28T01:09:54;4.70;99.90
59857;DHT22;45733;52.668;6.860;2024-02-28T01:12:19;4.90;99.90
59857;DHT22;45733;52.668;6.860;2024-02-28T01:14:45;5.00;99.90
59857;DHT22;45733;52.668;6.860;2024-02-28T01:17:11;5.00;99.90
59857;DHT22;45733;52.668;6.860;2024-02-28T01:19:36;4.80;99.90
59857;DHT22;45733;52.668;6.860;2024-02-28T01:22:02;5.90;99.90
59857;DHT22;45733;52.668;6.860;2024-02-28T01:24:28;5.10;99.90
59857;DHT22;45733;52.668;6.860;2024-02-28T01:26:53;5.10;99.90
59857;DHT22;45733;52.668;6.860;2024-02-28T01:29:19;5.00;99.90
59857;DHT22;45733;52.668;6.860;2024-02-28T01:31:45;4.80;99.90
59857;DHT22;45733;52.668;6.860;2024-02-28T01:34:10;4.80;99.90
59857;DHT22;45733;52.668;6.860;2024-02-28T01:36:36;5.90;99.90
59857;DHT22;45733;52.668;6.860;2024-02-28T01:39:02;5.00;99.90
59857;DHT22;45733;52.668;6.860;2024-02-28T01:41:28;4.70;99.90
59857;DHT22;45733;52.668;6.860;2024-02-28T01:43:54;4.80;99.90
59857;DHT22;45733;52.668;6.860;2024-02-28T01:46:27;5.70;99.90
59857;DHT22;45733;52.668;6.860;2024-02-28T01:48:55;5.70;99.90
59857;DHT22;45733;52.668;6.860;2024-02-28T01:51:22;5.10;99.90
59857;DHT22;45733;52.668;6.860;2024-02-28T01:53:50;5.60;99.90
59857;DHT22;45733;52.668;6.860;2024-02-28T01:56:16;5.40;99.90
59857;DHT22;45733;52.668;6.860;2024-02-28T01:58:47;6.10;99.90
59857;DHT22;45733;52.668;6.860;2024-02-28T02:01:17;5.60;99.90
59857;DHT22;45733;52.668;6.860;2024-02-28T02:03:43;5.80;99.90
59857;DHT22;45733;52.668;6.860;2024-02-28T02:06:10;5.70;99.90
59857;DHT22;45733;52.668;6.860;2024-02-28T02:08:37;5.40;99.90
59857;DHT22;45733;52.668;6.860;2024-02-28T02:11:03;5.00;99.90
59857;DHT22;45733;52.668;6.860;2024-02-28T02:13:29;6.00;99.90
59857;DHT22;45733;52.668;6.860;2024-02-28T02:15:54;6.10;99.90
59857;DHT22;45733;52.668;6.860;2024-02-28T02:18:20;5.20;99.90
59857;DHT22;45733;52.668;6.860;2024-02-28T02:20:50;5.70;99.90
59857;DHT22;45733;52.668;6.860;2024-02-28T02:23:15;5.40;99.90
59857;DHT22;45733;52.668;6.860;2024-02-28T02:25:45;4.90;99.90
59857;DHT22;45733;52.668;6.860;2024-02-28T02:28:11;5.70;99.90
59857;DHT22;45733;52.668;6.860;2024-02-28T02:30:38;5.70;99.90
59857;DHT22;45733;52.668;6.860;2024-02-28T02:33:05;5.70;99.90
59857;DHT22;45733;52.668;6.860;2024-02-28T02:35:30;5.00;99.90
59857;DHT22;45733;52.668;6.860;2024-02-28T02:37:56;5.20;99.90
59857;DHT22;45733;52.668;6.860;2024-02-28T02:40:22;5.60;99.90
59857;DHT22;45733;52.668;6.860;2024-02-28T02:42:47;5.80;99.90
59857;DHT22;45733;52.668;6.860;2024-02-28T02:45:13;5.90;99.90
59857;DHT22;45733;52.668;6.860;2024-02-28T02:47:39;4.80;99.90
59857;DHT22;45733;52.668;6.860;2024-02-28T02:50:05;4.90;99.90
59857;DHT22;45733;52.668;6.860;2024-02-28T02:52:31;6.10;99.90
59857;DHT22;45733;52.668;6.860;2024-02-28T02:54:56;5.90;99.90
59857;DHT22;45733;52.668;6.860;2024-02-28T02:57:22;5.00;99.90
59857;DHT22;45733;52.668;6.860;2024-02-28T02:59:48;5.30;99.90
59857;DHT22;45733;52.668;6.860;2024-02-28T03:02:13;5.00;99.90
59857;DHT22;45733;52.668;6.860;2024-02-28T03:04:39;6.20;99.90
59857;DHT22;45733;52.668;6.860;2024-02-28T03:07:05;6.00;99.90
59857;DHT22;45733;52.668;6.860;2024-02-28T03:09:31;6.20;99.90
59857;DHT22;45733;52.668;6.860;2024-02-28T03:11:56;5.80;99.90
59857;DHT22;45733;52.668;6.860;2024-02-28T03:14:22;5.20;99.90
59857;DHT22;45733;52.668;6.860;2024-02-28T03:16:48;6.20;99.90
59857;DHT22;45733;52.668;6.860;2024-02-28T03:19:14;4.90;99.90
59857;DHT22;45733;52.668;6.860;2024-02-28T03:21:40;6.10;99.90
59857;DHT22;45733;52.668;6.860;2024-02-28T03:24:07;5.70;99.90
59857;DHT22;45733;52.668;6.860;2024-02-28T03:26:32;6.00;99.90
59857;DHT22;45733;52.668;6.860;2024-02-28T03:28:59;6.10;99.90
59857;DHT22;45733;52.668;6.860;2024-02-28T03:31:25;6.20;99.90
59857;DHT22;45733;52.668;6.860;2024-02-28T03:33:51;5.40;99.90
59857;DHT22;45733;52.668;6.860;2024-02-28T03:36:17;5.60;99.90
59857;DHT22;45733;52.668;6.860;2024-02-28T03:38:42;5.40;99.90
59857;DHT22;45733;52.668;6.860;2024-02-28T03:41:09;6.20;99.90
59857;DHT22;45733;52.668;6.860;2024-02-28T03:43:35;5.20;99.90
59857;DHT22;45733;52.668;6.860;2024-02-28T03:46:01;5.60;99.90
59857;DHT22;45733;52.668;6.860;2024-02-28T03:48:27;6.20;99.90
59857;DHT22;45733;52.668;6.860;2024-02-28T03:50:52;5.90;99.90
59857;DHT22;45733;52.668;6.860;2024-02-28T03:53:18;4.90;99.90
59857;DHT22;45733;52.668;6.860;2024-02-28T03:55:44;5.40;99.90
59857;DHT22;45733;52.668;6.860;2024-02-28T03:58:10;5.00;99.90
59857;DHT22;45733;52.668;6.860;2024-02-28T04:00:36;5.90;99.90
59857;DHT22;45733;52.668;6.860;2024-02-28T04:03:03;6.30;99.90
59857;DHT22;45733;52.668;6.860;2024-02-28T04:05:28;6.30;99.90
59857;DHT22;45733;52.668;6.860;2024-02-28T04:07:54;6.20;99.90
59857;DHT22;45733;52.668;6.860;2024-02-28T04:10:20;6.20;99.90
59857;DHT22;45733;52.668;6.860;2024-02-28T04:12:46;6.10;99.90
59857;DHT22;45733;52.668;6.860;2024-02-28T04:15:12;5.20;99.90
59857;DHT22;45733;52.668;6.860;2024-02-28T04:17:39;5.70;99.90
59857;DHT22;45733;52.668;6.860;2024-02-28T04:20:10;5.50;99.90
59857;DHT22;45733;52.668;6.860;2024-02-28T04:22:36;5.80;99.90
59857;DHT22;45733;52.668;6.860;2024-02-28T04:25:06;6.10;99.90
59857;DHT22;45733;52.668;6.860;2024-02-28T04:27:33;5.30;99.90
59857;DHT22;45733;52.668;6.860;2024-02-28T04:29:59;6.30;99.90
59857;DHT22;45733;52.668;6.860;2024-02-28T04:32:25;5.10;99.90
59857;DHT22;45733;52.668;6.860;2024-02-28T04:34:50;5.60;99.90
59857;DHT22;45733;52.668;6.860;2024-02-28T04:37:16;5.30;99.90
59857;DHT22;45733;52.668;6.860;2024-02-28T04:39:42;5.10;99.90
59857;DHT22;45733;52.668;6.860;2024-02-28T04:42:12;5.80;99.90
59857;DHT22;45733;52.668;6.860;2024-02-28T04:44:38;4.90;99.90
59857;DHT22;45733;52.668;6.860;2024-02-28T04:47:03;5.00;99.90
59857;DHT22;45733;52.668;6.860;2024-02-28T04:49:30;4.80;99.90
59857;DHT22;45733;52.668;6.860;2024-02-28T04:51:56;5.00;99.90
59857;DHT22;45733;52.668;6.860;2024-02-28T04:54:21;4.80;99.90
59857;DHT22;45733;52.668;6.860;2024-02-28T04:56:47;5.80;99.90
59857;DHT22;45733;52.668;6.860;2024-02-28T04:59:13;5.30;99.90
59857;DHT22;45733;52.668;6.860;2024-02-28T05:01:39;6.10;99.90
59857;DHT22;45733;52.668;6.860;2024-02-28T05:04:06;6.20;99.90
59857;DHT22;45733;52.668;6.860;2024-02-28T05:06:32;6.10;99.90
59857;DHT22;45733;52.668;6.860;2024-02-28T05:08:58;4.80;99.90
59857;DHT22;45733;52.668;6.860;2024-02-28T05:11:23;5.40;99.90
59857;DHT22;45733;52.668;6.860;2024-02-28T05:13:49;5.10;99.90
59857;DHT22;45733;52.668;6.860;2024-02-28T05:16:15;5.60;99.90
59857;DHT22;45733;52.668;6.860;2024-02-28T05:18:42;5.80;99.90
59857;DHT22;45733;52.668;6.860;2024-02-28T05:21:07;5.40;99.90
59857;DHT22;45733;52.668;6.860;2024-02-28T05:23:33;5.10;99.90
59857;DHT22;45733;52.668;6.860;2024-02-28T05:25:59;4.90;99.90
59857;DHT22;45733;52.668;6.860;2024-02-28T05:28:29;6.00;99.90
59857;DHT22;45733;52.668;6.860;2024-02-28T05:30:56;5.10;99.90
59857;DHT22;45733;52.668;6.860;2024-02-28T05:33:22;4.80;99.90
59857;DHT22;45733;52.668;6.860;2024-02-28T05:35:48;5.10;99.90
59857;DHT22;45733;52.668;6.860;2024-02-28T05:38:13;4.90;99.90
59857;DHT22;45733;52.668;6.860;2024-02-28T05:40:41;4.90;99.90
59857;DHT22;45733;52.668;6.860;2024-02-28T05:43:06;6.20;99.90
59857;DHT22;45733;52.668;6.860;2024-02-28T05:45:32;5.10;99.90
59857;DHT22;45733;52.668;6.860;2024-02-28T05:47:58;5.10;99.90
59857;DHT22;45733;52.668;6.860;2024-02-28T05:50:23;4.90;99.90
59857;DHT22;45733;52.668;6.860;2024-02-28T05:52:50;6.00;99.90
59857;DHT22;45733;52.668;6.860;2024-02-28T05:55:17;5.80;99.90
59857;DHT22;45733;52.668;6.860;2024-02-28T05:57:43;6.00;99.90
59857;DHT22;45733;52.668;6.860;2024-02-28T06:00:09;5.70;99.90
59857;DHT22;45733;52.668;6.860;2024-02-28T06:02:39;5.00;99.90
59857;DHT22;45733;52.668;6.860;2024-02-28T06:05:05;5.30;99.90
59857;DHT22;45733;52.668;6.860;2024-02-28T06:07:31;5.10;99.90
59857;DHT22;45733;52.668;6.860;2024-02-28T06:09:57;6.00;99.90
59857;DHT22;45733;52.668;6.860;2024-02-28T06:12:22;6.30;99.90
59857;DHT22;45733;52.668;6.860;2024-02-28T06:14:48;5.20;99.90
59857;DHT22;45733;52.668;6.860;2024-02-28T06:17:14;6.30;99.90
59857;DHT22;45733;52.668;6.860;2024-02-28T06:19:39;5.00;99.90
59857;DHT22;45733;52.668;6.860;2024-02-28T06:22:05;5.20;99.90
59857;DHT22;45733;52.668;6.860;2024-02-28T06:24:34;5.60;99.90
59857;DHT22;45733;52.668;6.860;2024-02-28T06:27:02;5.10;99.90
59857;DHT22;45733;52.668;6.860;2024-02-28T06:29:28;6.20;99.90
59857;DHT22;45733;52.668;6.860;2024-02-28T06:31:54;5.90;99.90
59857;DHT22;45733;52.668;6.860;2024-02-28T06:34:21;6.00;99.90
59857;DHT22;45733;52.668;6.860;2024-02-28T06:36:48;5.90;99.90
59857;DHT22;45733;52.668;6.860;2024-02-28T06:39:13;6.30;99.90
59857;DHT22;45733;52.668;6.860;2024-02-28T06:41:40;6.40;99.90
59857;DHT22;45733;52.668;6.860;2024-02-28T06:44:06;6.30;99.90
59857;DHT22;45733;52.668;6.860;2024-02-28T06:46:33;6.10;99.90
59857;DHT22;45733;52.668;6.860;2024-02-28T06:48:58;5.40;99.90
59857;DHT22;45733;52.668;6.860;2024-02-28T06:51:24;6.40;99.90
59857;DHT22;45733;52.668;6.860;2024-02-28T06:53:54;6.30;99.90
59857;DHT22;45733;52.668;6.860;2024-02-28T06:56:20;5.30;99.90
59857;DHT22;45733;52.668;6.860;2024-02-28T06:58:47;5.40;99.90
59857;DHT22;45733;52.668;6.860;2024-02-28T07:01:13;6.50;99.90
59857;DHT22;45733;52.668;6.860;2024-02-28T07:03:39;5.40;99.90
59857;DHT22;45733;52.668;6.860;2024-02-28T07:06:04;6.50;99.90
59857;DHT22;45733;52.668;6.860;2024-02-28T07:08:32;6.30;99.90
59857;DHT22;45733;52.668;6.860;2024-02-28T07:10:58;6.10;99.90
59857;DHT22;45733;52.668;6.860;2024-02-28T07:13:23;5.60;99.90
59857;DHT22;45733;52.668;6.860;2024-02-28T07:15:49;6.50;99.90
59857;DHT22;45733;52.668;6.860;2024-02-28T07:18:15;6.50;99.90
59857;DHT22;45733;52.668;6.860;2024-02-28T07:20:41;6.30;99.90
59857;DHT22;45733;52.668;6.860;2024-02-28T07:23:07;6.60;99.90
59857;DHT22;45733;52.668;6.860;2024-02-28T07:25:33;5.50;99.90
59857;DHT22;45733;52.668;6.860;2024-02-28T07:27:58;6.60;99.90
59857;DHT22;45733;52.668;6.860;2024-02-28T07:30:28;5.60;99.90
59857;DHT22;45733;52.668;6.860;2024-02-28T07:32:54;5.70;99.90
59857;DHT22;45733;52.668;6.860;2024-02-28T07:35:26;6.70;99.90
59857;DHT22;45733;52.668;6.860;2024-02-28T07:37:52;5.90;99.90
59857;DHT22;45733;52.668;6.860;2024-02-28T07:40:17;6.80;99.90
59857;DHT22;45733;52.668;6.860;2024-02-28T07:42:44;6.80;99.90
59857;DHT22;45733;52.668;6.860;2024-02-28T07:45:09;6.50;99.90
59857;DHT22;45733;52.668;6.860;2024-02-28T07:47:35;6.00;99.90
59857;DHT22;45733;52.668;6.860;2024-02-28T07:50:02;6.90;99.90
59857;DHT22;45733;52.668;6.860;2024-02-28T07:52:28;6.50;99.90
59857;DHT22;45733;52.668;6.860;2024-02-28T07:54:54;6.20;99.90
59857;DHT22;45733;52.668;6.860;2024-02-28T07:57:19;6.90;99.90
59857;DHT22;45733;52.668;6.860;2024-02-28T07:59:45;7.00;99.90
59857;DHT22;45733;52.668;6.860;2024-02-28T08:02:11;6.10;99.90
59857;DHT22;45733;52.668;6.860;2024-02-28T08:04:39;6.10;99.90
59857;DHT22;45733;52.668;6.860;2024-02-28T08:07:05;6.30;99.90
59857;DHT22;45733;52.668;6.860;2024-02-28T08:09:31;7.00;99.90
59857;DHT22;45733;52.668;6.860;2024-02-28T08:11:57;6.90;99.90
59857;DHT22;45733;52.668;6.860;2024-02-28T08:14:24;6.50;99.90
59857;DHT22;45733;52.668;6.860;2024-02-28T08:16:50;6.70;99.90
59857;DHT22;45733;52.668;6.860;2024-02-28T08:19:15;6.50;99.90
59857;DHT22;45733;52.668;6.860;2024-02-28T08:21:42;7.20;99.90
59857;DHT22;45733;52.668;6.860;2024-02-28T08:24:08;7.30;99.90
59857;DHT22;45733;52.668;6.860;2024-02-28T08:26:34;6.70;99.90
59857;DHT22;45733;52.668;6.860;2024-02-28T08:29:01;6.60;99.90
59857;DHT22;45733;52.668;6.860;2024-02-28T08:31:28;7.10;99.90
59857;DHT22;45733;52.668;6.860;2024-02-28T08:33:53;6.80;99.90
59857;DHT22;45733;52.668;6.860;2024-02-28T08:36:21;7.10;99.90
59857;DHT22;45733;52.668;6.860;2024-02-28T08:38:46;7.30;99.90
59857;DHT22;45733;52.668;6.860;2024-02-28T08:41:12;7.40;99.90
59857;DHT22;45733;52.668;6.860;2024-02-28T08:43:39;7.20;99.90
59857;DHT22;45733;52.668;6.860;2024-02-28T08:46:05;7.00;99.90
59857;DHT22;45733;52.668;6.860;2024-02-28T08:48:32;7.50;99.90
59857;DHT22;45733;52.668;6.860;2024-02-28T08:50:57;7.00;99.90
59857;DHT22;45733;52.668;6.860;2024-02-28T08:53:23;7.20;99.90
59857;DHT22;45733;52.668;6.860;2024-02-28T08:55:49;7.30;99.90
59857;DHT22;45733;52.668;6.860;2024-02-28T08:58:14;7.50;99.90
59857;DHT22;45733;52.668;6.860;2024-02-28T09:00:40;7.70;99.90
59857;DHT22;45733;52.668;6.860;2024-02-28T09:03:06;7.40;99.90
59857;DHT22;45733;52.668;6.860;2024-02-28T09:05:32;7.40;99.90
59857;DHT22;45733;52.668;6.860;2024-02-28T09:07:57;7.40;99.90
59857;DHT22;45733;52.668;6.860;2024-02-28T09:10:26;7.90;99.90
59857;DHT22;45733;52.668;6.860;2024-02-28T09:12:52;8.00;99.90
59857;DHT22;45733;52.668;6.860;2024-02-28T09:15:18;8.10;99.90
59857;DHT22;45733;52.668;6.860;2024-02-28T09:17:45;7.80;99.90
59857;DHT22;45733;52.668;6.860;2024-02-28T09:20:13;8.20;99.90
59857;DHT22;45733;52.668;6.860;2024-02-28T09:22:39;8.20;99.90
59857;DHT22;45733;52.668;6.860;2024-02-28T09:25:06;8.40;99.90
59857;DHT22;45733;52.668;6.860;2024-02-28T09:27:34;8.40;99.90
59857;DHT22;45733;52.668;6.860;2024-02-28T09:30:00;8.30;99.90
59857;DHT22;45733;52.668;6.860;2024-02-28T09:32:25;8.30;99.90
59857;DHT22;45733;52.668;6.860;2024-02-28T09:34:51;8.40;99.90
59857;DHT22;45733;52.668;6.860;2024-02-28T09:37:17;8.60;99.90
59857;DHT22;45733;52.668;6.860;2024-02-28T09:39:42;8.70;99.90
59857;DHT22;45733;52.668;6.860;2024-02-28T09:42:09;8.80;99.90
59857;DHT22;45733;52.668;6.860;2024-02-28T09:44:36;8.90;99.90
59857;DHT22;45733;52.668;6.860;2024-02-28T09:47:03;9.10;99.90
59857;DHT22;45733;52.668;6.860;2024-02-28T09:49:31;9.20;99.90
59857;DHT22;45733;52.668;6.860;2024-02-28T09:51:57;9.20;99.90
59857;DHT22;45733;52.668;6.860;2024-02-28T09:54:23;9.30;99.90
59857;DHT22;45733;52.668;6.860;2024-02-28T09:56:49;9.50;99.90
59857;DHT22;45733;52.668;6.860;2024-02-28T09:59:18;9.50;99.90
59857;DHT22;45733;52.668;6.860;2024-02-28T10:01:47;9.50;99.90
59857;DHT22;45733;52.668;6.860;2024-02-28T10:04:14;9.60;99.90
59857;DHT22;45733;52.668;6.860;2024-02-28T10:06:40;9.70;99.90
59857;DHT22;45733;52.668;6.860;2024-02-28T10:09:06;9.60;99.90
59857;DHT22;45733;52.668;6.860;2024-02-28T10:11:33;9.50;99.90
59857;DHT22;45733;52.668;6.860;2024-02-28T10:14:00;9.30;99.90
59857;DHT22;45733;52.668;6.860;2024-02-28T10:16:27;9.50;99.90
59857;DHT22;45733;52.668;6.860;2024-02-28T10:18:52;9.40;99.90
59857;DHT22;45733;52.668;6.860;2024-02-28T10:21:19;9.40;99.90
59857;DHT22;45733;52.668;6.860;2024-02-28T10:23:45;9.50;99.90
59857;DHT22;45733;52.668;6.860;2024-02-28T10:26:11;9.60;99.90
59857;DHT22;45733;52.668;6.860;2024-02-28T10:28:38;9.60;99.90
59857;DHT22;45733;52.668;6.860;2024-02-28T10:31:05;9.70;99.90
59857;DHT22;45733;52.668;6.860;2024-02-28T10:33:32;9.80;99.90
59857;DHT22;45733;52.668;6.860;2024-02-28T10:35:59;9.90;99.90
59857;DHT22;45733;52.668;6.860;2024-02-28T10:38:26;9.90;99.90
59857;DHT22;45733;52.668;6.860;2024-02-28T10:40:53;10.20;99.90
59857;DHT22;45733;52.668;6.860;2024-02-28T10:43:20;10.30;99.90
59857;DHT22;45733;52.668;6.860;2024-02-28T10:45:46;10.40;99.90
59857;DHT22;45733;52.668;6.860;2024-02-28T10:48:14;10.20;99.90
59857;DHT22;45733;52.668;6.860;2024-02-28T10:50:40;10.10;99.90
59857;DHT22;45733;52.668;6.860;2024-02-28T10:53:13;10.10;99.90
59857;DHT22;45733;52.668;6.860;2024-02-28T10:55:42;10.20;99.90
59857;DHT22;45733;52.668;6.860;2024-02-28T10:58:10;10.10;99.90
59857;DHT22;45733;52.668;6.860;2024-02-28T11:00:37;10.20;99.90
59857;DHT22;45733;52.668;6.860;2024-02-28T11:03:04;10.30;95.90
59857;DHT22;45733;52.668;6.860;2024-02-28T11:05:40;10.30;60.70
59857;DHT22;45733;52.668;6.860;2024-02-28T11:08:10;10.10;1.00
59857;DHT22;45733;52.668;6.860;2024-02-28T11:10:42;10.20;1.00
59857;DHT22;45733;52.668;6.860;2024-02-28T11:13:10;10.40;1.00
59857;DHT22;45733;52.668;6.860;2024-02-28T11:15:46;10.50;1.00
59857;DHT22;45733;52.668;6.860;2024-02-28T11:18:11;10.60;1.00
59857;DHT22;45733;52.668;6.860;2024-02-28T11:20:38;10.80;1.00
59857;DHT22;45733;52.668;6.860;2024-02-28T11:23:06;10.80;99.90
59857;DHT22;45733;52.668;6.860;2024-02-28T11:25:32;11.00;99.90
59857;DHT22;45733;52.668;6.860;2024-02-28T11:27:57;11.00;99.90
59857;DHT22;45733;52.668;6.860;2024-02-28T11:30:25;10.80;1.00
59857;DHT22;45733;52.668;6.860;2024-02-28T11:32:52;10.70;1.00
59857;DHT22;45733;52.668;6.860;2024-02-28T11:35:19;10.80;1.00
59857;DHT22;45733;52.668;6.860;2024-02-28T11:37:45;10.90;91.10
59857;DHT22;45733;52.668;6.860;2024-02-28T11:40:14;10.70;1.00
59857;DHT22;45733;52.668;6.860;2024-02-28T11:42:40;10.60;1.00
59857;DHT22;45733;52.668;6.860;2024-02-28T11:45:09;10.40;1.00
59857;DHT22;45733;52.668;6.860;2024-02-28T11:47:35;10.30;1.00
59857;DHT22;45733;52.668;6.860;2024-02-28T11:50:02;10.10;1.00
59857;DHT22;45733;52.668;6.860;2024-02-28T11:52:31;10.20;1.00
59857;DHT22;45733;52.668;6.860;2024-02-28T11:54:57;10.30;43.50
59857;DHT22;45733;52.668;6.860;2024-02-28T11:57:23;10.30;99.90
59857;DHT22;45733;52.668;6.860;2024-02-28T11:59:48;10.50;99.90
59857;DHT22;45733;52.668;6.860;2024-02-28T12:02:17;10.50;99.90
59857;DHT22;45733;52.668;6.860;2024-02-28T12:04:44;10.60;99.90
59857;DHT22;45733;52.668;6.860;2024-02-28T12:07:10;10.70;99.90
59857;DHT22;45733;52.668;6.860;2024-02-28T12:09:36;10.80;99.90
59857;DHT22;45733;52.668;6.860;2024-02-28T12:12:02;10.70;1.00
59857;DHT22;45733;52.668;6.860;2024-02-28T12:14:32;10.80;52.20
59857;DHT22;45733;52.668;6.860;2024-02-28T12:16:58;10.80;43.50
59857;DHT22;45733;52.668;6.860;2024-02-28T12:19:24;10.90;99.90
59857;DHT22;45733;52.668;6.860;2024-02-28T12:21:50;10.90;1.00
59857;DHT22;45733;52.668;6.860;2024-02-28T12:24:16;11.00;1.00
59857;DHT22;45733;52.668;6.860;2024-02-28T12:26:41;11.00;83.70
59857;DHT22;45733;52.668;6.860;2024-02-28T12:29:07;10.90;1.00
59857;DHT22;45733;52.668;6.860;2024-02-28T12:31:36;10.80;1.00
59857;DHT22;45733;52.668;6.860;2024-02-28T12:34:02;10.70;1.00
59857;DHT22;45733;52.668;6.860;2024-02-28T12:36:29;10.70;62.70
59857;DHT22;45733;52.668;6.860;2024-02-28T12:38:56;10.60;98.20
59857;DHT22;45733;52.668;6.860;2024-02-28T12:41:22;10.60;99.90
59857;DHT22;45733;52.668;6.860;2024-02-28T12:43:48;10.60;99.90
59857;DHT22;45733;52.668;6.860;2024-02-28T12:46:16;10.70;99.90
59857;DHT22;45733;52.668;6.860;2024-02-28T12:48:42;10.70;99.90
59857;DHT22;45733;52.668;6.860;2024-02-28T12:51:12;10.40;99.90
59857;DHT22;45733;52.668;6.860;2024-02-28T12:53:45;10.50;99.90
59857;DHT22;45733;52.668;6.860;2024-02-28T12:56:11;10.40;99.90
59857;DHT22;45733;52.668;6.860;2024-02-28T12:58:37;10.60;99.90
59857;DHT22;45733;52.668;6.860;2024-02-28T13:01:03;10.50;99.90
59857;DHT22;45733;52.668;6.860;2024-02-28T13:03:30;10.50;99.90
59857;DHT22;45733;52.668;6.860;2024-02-28T13:05:56;10.50;99.90
59857;DHT22;45733;52.668;6.860;2024-02-28T13:08:21;10.50;99.90
59857;DHT22;45733;52.668;6.860;2024-02-28T13:10:47;10.60;99.90
59857;DHT22;45733;52.668;6.860;2024-02-28T13:13:13;10.60;99.90
59857;DHT22;45733;52.668;6.860;2024-02-28T13:15:40;10.70;99.90
59857;DHT22;45733;52.668;6.860;2024-02-28T13:18:06;10.70;99.90
59857;DHT22;45733;52.668;6.860;2024-02-28T13:20:35;10.70;99.90
59857;DHT22;45733;52.668;6.860;2024-02-28T13:23:00;10.70;99.90
59857;DHT22;45733;52.668;6.860;2024-02-28T13:25:26;10.80;99.90
59857;DHT22;45733;52.668;6.860;2024-02-28T13:27:52;10.80;99.90
59857;DHT22;45733;52.668;6.860;2024-02-28T13:30:17;10.80;99.90
59857;DHT22;45733;52.668;6.860;2024-02-28T13:32:43;10.90;99.90
59857;DHT22;45733;52.668;6.860;2024-02-28T13:35:09;11.10;99.90
59857;DHT22;45733;52.668;6.860;2024-02-28T13:37:35;11.20;99.90
59857;DHT22;45733;52.668;6.860;2024-02-28T13:40:02;11.30;45.80
59857;DHT22;45733;52.668;6.860;2024-02-28T13:42:33;11.20;99.90
59857;DHT22;45733;52.668;6.860;2024-02-28T13:44:58;11.30;1.00
59857;DHT22;45733;52.668;6.860;2024-02-28T13:47:24;11.20;99.90
59857;DHT22;45733;52.668;6.860;2024-02-28T13:49:50;11.20;99.90
59857;DHT22;45733;52.668;6.860;2024-02-28T13:52:16;11.20;99.90
59857;DHT22;45733;52.668;6.860;2024-02-28T13:54:41;11.30;99.90
59857;DHT22;45733;52.668;6.860;2024-02-28T13:57:07;11.20;99.90
59857;DHT22;45733;52.668;6.860;2024-02-28T13:59:33;11.40;99.90
59857;DHT22;45733;52.668;6.860;2024-02-28T14:01:59;11.50;99.90
59857;DHT22;45733;52.668;6.860;2024-02-28T14:04:25;11.50;99.90
59857;DHT22;45733;52.668;6.860;2024-02-28T14:06:51;11.50;99.90
59857;DHT22;45733;52.668;6.860;2024-02-28T14:09:17;11.50;79.10
59857;DHT22;45733;52.668;6.860;2024-02-28T14:11:43;11.40;87.80
59857;DHT22;45733;52.668;6.860;2024-02-28T14:14:10;11.50;86.00
59857;DHT22;45733;52.668;6.860;2024-02-28T14:16:37;11.30;1.00
59857;DHT22;45733;52.668;6.860;2024-02-28T14:19:02;11.30;22.70
59857;DHT22;45733;52.668;6.860;2024-02-28T14:21:29;11.30;63.70
59857;DHT22;45733;52.668;6.860;2024-02-28T14:23:55;11.20;45.20
59857;DHT22;45733;52.668;6.860;2024-02-28T14:26:21;11.10;89.30
59857;DHT22;45733;52.668;6.860;2024-02-28T14:28:49;11.20;99.90
59857;DHT22;45733;52.668;6.860;2024-02-28T14:31:15;11.20;99.90
59857;DHT22;45733;52.668;6.860;2024-02-28T14:33:40;11.20;99.90
59857;DHT22;45733;52.668;6.860;2024-02-28T14:36:06;11.30;99.90
59857;DHT22;45733;52.668;6.860;2024-02-28T14:38:32;11.30;99.90
59857;DHT22;45733;52.668;6.860;2024-02-28T14:40:58;11.30;99.90
59857;DHT22;45733;52.668;6.860;2024-02-28T14:43:23;11.20;99.90
59857;DHT22;45733;52.668;6.860;2024-02-28T14:45:49;11.10;99.90
59857;DHT22;45733;52.668;6.860;2024-02-28T14:48:15;11.00;99.90
59857;DHT22;45733;52.668;6.860;2024-02-28T14:50:41;11.00;99.90
59857;DHT22;45733;52.668;6.860;2024-02-28T14:53:07;11.00;99.90
59857;DHT22;45733;52.668;6.860;2024-02-28T14:55:33;10.90;99.90
59857;DHT22;45733;52.668;6.860;2024-02-28T14:57:59;10.90;99.90
59857;DHT22;45733;52.668;6.860;2024-02-28T15:00:26;11.00;1.00
59857;DHT22;45733;52.668;6.860;2024-02-28T15:02:53;10.90;99.90
59857;DHT22;45733;52.668;6.860;2024-02-28T15:05:19;10.90;99.90
59857;DHT22;45733;52.668;6.860;2024-02-28T15:07:45;10.90;99.90
59857;DHT22;45733;52.668;6.860;2024-02-28T15:10:11;10.80;99.90
59857;DHT22;45733;52.668;6.860;2024-02-28T15:12:39;10.90;99.90
59857;DHT22;45733;52.668;6.860;2024-02-28T15:15:07;10.90;99.90
59857;DHT22;45733;52.668;6.860;2024-02-28T15:17:33;10.70;99.90
59857;DHT22;45733;52.668;6.860;2024-02-28T15:19:59;10.70;99.90
59857;DHT22;45733;52.668;6.860;2024-02-28T15:22:28;10.70;99.90
59857;DHT22;45733;52.668;6.860;2024-02-28T15:24:55;10.70;1.00
59857;DHT22;45733;52.668;6.860;2024-02-28T15:27:20;10.80;1.00
59857;DHT22;45733;52.668;6.860;2024-02-28T15:29:46;10.70;1.00
59857;DHT22;45733;52.668;6.860;2024-02-28T15:32:12;10.80;1.00
59857;DHT22;45733;52.668;6.860;2024-02-28T15:34:38;10.70;1.00
59857;DHT22;45733;52.668;6.860;2024-02-28T15:37:04;10.80;1.00